createdAt,value
2018-02-16T00:00:13.096Z,31.23
2018-02-16T00:02:39.108Z,29.77
2018-02-16T00:05:05.081Z,32.07
2018-02-16T00:07:31.156Z,32.17
2018-02-16T00:09:57.156Z,32.63
2018-02-16T00:12:23.212Z,32.10
2018-02-16T00:14:49.282Z,32.50
2018-02-16T00:17:15.332Z,32.57
2018-02-16T00:19:41.320Z,34.13
2018-02-16T00:22:07.396Z,35.80
2018-02-16T00:24:33.410Z,34.13
2018-02-16T00:26:59.472Z,36.10
2018-02-16T00:29:25.506Z,34.57
2018-02-16T00:31:51.560Z,33.17
2018-02-16T00:34:17.608Z,34.33
2018-02-16T00:36:43.670Z,34.00
2018-02-16T00:39:09.740Z,33.87
2018-02-16T00:41:35.777Z,32.70
2018-02-16T00:44:01.785Z,33.33
2018-02-16T00:46:27.804Z,35.07
2018-02-16T00:48:53.808Z,34.70
2018-02-16T00:51:19.857Z,36.47
2018-02-16T00:53:45.843Z,33.00
2018-02-16T00:56:11.897Z,30.20
2018-02-16T00:58:37.957Z,34.30
2018-02-16T01:01:03.949Z,35.10
2018-02-16T01:03:30.026Z,33.37
2018-02-16T01:05:56.033Z,31.83
2018-02-16T01:08:22.079Z,34.43
2018-02-16T01:10:48.105Z,31.20
2018-02-16T01:13:14.106Z,28.67
2018-02-16T01:15:40.137Z,31.77
2018-02-16T01:18:06.126Z,28.97
2018-02-16T01:20:32.195Z,30.87
2018-02-16T01:22:58.174Z,30.57
2018-02-16T01:25:24.113Z,28.67
2018-02-16T01:27:50.154Z,32.90
2018-02-16T01:30:16.102Z,32.47
2018-02-16T01:32:42.185Z,30.83
2018-02-16T01:35:08.252Z,33.40
2018-02-16T01:37:34.669Z,33.97
2018-02-16T01:40:00.688Z,34.97
2018-02-16T01:42:26.716Z,32.30
2018-02-16T01:44:52.892Z,31.33
2018-02-16T01:47:18.913Z,30.77
2018-02-16T01:49:51.756Z,30.90
2018-02-16T01:52:17.787Z,31.47
2018-02-16T01:54:43.830Z,32.33
2018-02-16T01:57:09.808Z,34.37
2018-02-16T01:59:35.793Z,31.90
2018-02-16T02:02:01.842Z,32.93
2018-02-16T02:04:27.854Z,32.67
2018-02-16T02:06:53.877Z,32.60
2018-02-16T02:09:19.871Z,35.27
2018-02-16T02:11:45.912Z,32.03
2018-02-16T02:14:11.896Z,33.33
2018-02-16T02:16:37.945Z,32.87
2018-02-16T02:19:03.949Z,34.07
2018-02-16T02:21:29.996Z,32.67
2018-02-16T02:23:56.093Z,33.57
2018-02-16T02:26:22.116Z,33.53
2018-02-16T02:28:48.280Z,36.33
2018-02-16T02:31:14.272Z,33.70
2018-02-16T02:33:40.297Z,34.07
2018-02-16T02:36:06.294Z,38.73
2018-02-16T02:38:32.278Z,39.40
2018-02-16T02:40:58.289Z,41.10
2018-02-16T02:43:24.269Z,39.67
2018-02-16T02:45:50.238Z,40.20
2018-02-16T02:48:16.261Z,38.40
2018-02-16T02:50:42.299Z,37.10
2018-02-16T02:53:08.267Z,36.30
2018-02-16T02:55:34.308Z,34.27
2018-02-16T02:58:00.297Z,35.80
2018-02-16T03:00:26.354Z,37.60
2018-02-16T03:02:52.362Z,33.27
2018-02-16T03:05:18.413Z,36.00
2018-02-16T03:07:44.437Z,38.73
2018-02-16T03:10:10.401Z,38.47
2018-02-16T03:12:36.409Z,37.53
2018-02-16T03:15:02.547Z,35.40
2018-02-16T03:17:28.489Z,35.07
2018-02-16T03:19:54.573Z,33.53
2018-02-16T03:22:20.588Z,33.83
2018-02-16T03:24:46.568Z,33.27
2018-02-16T03:27:12.571Z,30.60
2018-02-16T03:29:38.549Z,29.90
2018-02-16T03:32:04.565Z,31.77
2018-02-16T03:34:30.581Z,32.10
2018-02-16T03:36:56.616Z,31.27
2018-02-16T03:39:22.684Z,32.07
2018-02-16T03:41:48.688Z,33.63
2018-02-16T03:44:14.681Z,33.47
2018-02-16T03:46:40.645Z,35.60
2018-02-16T03:49:06.704Z,31.10
2018-02-16T03:51:32.681Z,33.27
2018-02-16T03:53:58.729Z,31.97
2018-02-16T03:56:24.824Z,36.87
2018-02-16T03:58:50.781Z,37.90
2018-02-16T04:01:16.796Z,37.50
2018-02-16T04:03:42.821Z,38.23
2018-02-16T04:06:08.845Z,37.30
2018-02-16T04:08:34.828Z,37.97
2018-02-16T04:11:00.880Z,35.57
2018-02-16T04:13:26.860Z,37.03
2018-02-16T04:15:52.896Z,39.17
2018-02-16T04:18:18.890Z,33.03
2018-02-16T04:20:44.918Z,34.70
2018-02-16T04:23:10.916Z,32.10
2018-02-16T04:25:36.870Z,31.37
2018-02-16T04:28:02.921Z,32.43
2018-02-16T04:30:28.917Z,31.50
2018-02-16T04:32:54.945Z,32.10
2018-02-16T04:35:20.943Z,29.80
2018-02-16T04:37:46.989Z,31.73
2018-02-16T04:40:13.016Z,33.13
2018-02-16T04:42:38.968Z,36.17
2018-02-16T04:45:05.061Z,38.40
2018-02-16T04:47:31.067Z,38.03
2018-02-16T04:49:57.085Z,34.60
2018-02-16T04:52:23.104Z,33.47
2018-02-16T04:54:49.117Z,36.40
2018-02-16T04:57:15.122Z,34.07
2018-02-16T04:59:41.152Z,37.17
2018-02-16T05:02:07.148Z,39.50
2018-02-16T05:04:33.212Z,37.83
2018-02-16T05:06:59.239Z,36.70
2018-02-16T05:09:25.197Z,34.80
2018-02-16T05:11:51.201Z,38.17
2018-02-16T05:14:17.220Z,38.20
2018-02-16T05:16:43.224Z,41.13
2018-02-16T05:19:09.192Z,41.03
2018-02-16T05:21:35.181Z,41.27
2018-02-16T05:24:01.200Z,32.77
2018-02-16T05:26:27.168Z,36.60
2018-02-16T05:28:53.136Z,31.80
2018-02-16T05:31:19.112Z,33.47
2018-02-16T05:33:45.164Z,33.60
2018-02-16T05:36:11.137Z,39.20
2018-02-16T05:38:37.155Z,38.60
2018-02-16T05:41:03.158Z,41.80
2018-02-16T05:43:29.184Z,41.57
2018-02-16T05:45:55.236Z,39.73
2018-02-16T05:48:21.222Z,38.50
2018-02-16T05:50:47.244Z,42.37
2018-02-16T05:53:13.236Z,47.33
2018-02-16T05:55:39.264Z,42.57
2018-02-16T05:58:05.297Z,39.10
2018-02-16T06:00:31.344Z,44.40
2018-02-16T06:02:57.352Z,39.57
2018-02-16T06:05:23.372Z,39.40
2018-02-16T06:07:49.369Z,42.03
2018-02-16T06:10:15.369Z,37.23
2018-02-16T06:12:41.363Z,38.10
2018-02-16T06:15:07.444Z,38.60
2018-02-16T06:17:33.464Z,37.67
2018-02-16T06:19:59.484Z,38.27
2018-02-16T06:22:25.498Z,38.00
2018-02-16T06:24:51.501Z,38.20
2018-02-16T06:27:17.482Z,37.43
2018-02-16T06:29:43.559Z,35.20
2018-02-16T06:32:09.576Z,39.20
2018-02-16T06:34:35.584Z,38.77
2018-02-16T06:37:01.598Z,40.17
2018-02-16T06:39:27.649Z,43.23
2018-02-16T06:41:53.653Z,40.90
2018-02-16T06:44:19.633Z,41.20
2018-02-16T06:46:45.669Z,38.63
2018-02-16T06:49:11.713Z,40.67
2018-02-16T06:51:37.725Z,37.30
2018-02-16T06:54:03.806Z,40.30
2018-02-16T06:56:29.824Z,35.37
2018-02-16T06:58:55.865Z,37.00
2018-02-16T07:01:21.900Z,40.77
2018-02-16T07:03:47.961Z,42.10
2018-02-16T07:06:14.052Z,42.63
2018-02-16T07:08:40.145Z,43.23
2018-02-16T07:11:06.164Z,45.07
2018-02-16T07:13:32.194Z,42.80
2018-02-16T07:15:58.202Z,41.33
2018-02-16T07:18:24.197Z,45.70
2018-02-16T07:20:57.221Z,40.77
2018-02-16T07:23:23.334Z,47.10
2018-02-16T07:25:49.340Z,43.27
2018-02-16T07:28:15.373Z,42.13
2018-02-16T07:30:41.380Z,48.20
2018-02-16T07:33:07.402Z,52.13
2018-02-16T07:35:33.381Z,49.97
2018-02-16T07:37:59.468Z,51.37
2018-02-16T07:40:25.467Z,42.50
2018-02-16T07:42:51.512Z,44.43
2018-02-16T07:45:17.500Z,47.60
2018-02-16T07:47:43.452Z,41.93
2018-02-16T07:50:09.441Z,49.73
2018-02-16T07:52:35.465Z,43.73
2018-02-16T07:55:01.537Z,45.37
2018-02-16T07:57:27.493Z,50.37
2018-02-16T07:59:53.464Z,63.97
2018-02-16T08:02:19.481Z,47.90
2018-02-16T08:04:45.497Z,46.20
2018-02-16T08:07:11.524Z,50.80
2018-02-16T08:09:37.542Z,42.60
2018-02-16T08:12:03.578Z,47.10
2018-02-16T08:14:29.595Z,58.23
2018-02-16T08:16:55.722Z,45.70
2018-02-16T08:19:21.695Z,41.97
2018-02-16T08:21:47.704Z,36.20
2018-02-16T08:24:13.732Z,37.73
2018-02-16T08:26:39.776Z,32.57
2018-02-16T08:29:05.769Z,38.47
2018-02-16T08:31:31.848Z,33.80
2018-02-16T08:33:57.864Z,33.03
2018-02-16T08:36:23.904Z,34.00
2018-02-16T08:38:49.961Z,31.73
2018-02-16T08:41:15.953Z,30.80
2018-02-16T08:43:49.021Z,31.13
2018-02-16T08:46:15.064Z,28.50
2018-02-16T08:48:41.016Z,31.57
2018-02-16T08:51:07.072Z,28.13
2018-02-16T08:53:33.097Z,27.43
2018-02-16T08:55:59.091Z,28.37
2018-02-16T08:58:25.110Z,26.30
2018-02-16T09:00:51.144Z,24.57
2018-02-16T09:03:17.205Z,26.80
2018-02-16T09:05:43.186Z,23.70
2018-02-16T09:08:09.214Z,23.90
2018-02-16T09:10:35.229Z,22.00
2018-02-16T09:13:01.309Z,21.87
2018-02-16T09:15:27.320Z,20.20
2018-02-16T09:17:53.361Z,16.10
2018-02-16T09:20:19.483Z,17.80
2018-02-16T09:22:45.508Z,16.70
2018-02-16T09:25:11.554Z,16.83
2018-02-16T09:27:37.517Z,16.43
2018-02-16T09:30:03.725Z,14.97
2018-02-16T09:32:29.693Z,19.63
2018-02-16T09:34:55.853Z,17.33
2018-02-16T09:37:22.768Z,17.83
2018-02-16T09:39:49.642Z,14.57
2018-02-16T09:42:15.702Z,16.87
2018-02-16T09:44:41.761Z,18.90
2018-02-16T09:47:07.783Z,18.00
2018-02-16T09:49:33.717Z,16.50
2018-02-16T09:51:59.681Z,17.87
2018-02-16T09:54:25.711Z,18.10
2018-02-16T09:56:51.723Z,24.53
2018-02-16T09:59:17.784Z,24.40
2018-02-16T10:01:43.798Z,19.50
2018-02-16T10:04:09.829Z,18.97
2018-02-16T10:06:35.864Z,18.90
2018-02-16T10:09:01.946Z,19.40
2018-02-16T10:11:27.941Z,18.70
2018-02-16T10:13:53.929Z,16.20
2018-02-16T10:16:19.988Z,19.63
2018-02-16T10:18:45.978Z,18.57
2018-02-16T10:21:12.008Z,21.47
2018-02-16T10:23:37.992Z,14.57
2018-02-16T10:26:04.041Z,11.77
2018-02-16T10:28:30.052Z,12.63
2018-02-16T10:30:56.088Z,12.80
2018-02-16T10:33:22.129Z,14.77
2018-02-16T10:35:48.164Z,17.17
2018-02-16T10:38:14.269Z,15.57
2018-02-16T10:40:40.320Z,14.07
2018-02-16T10:43:06.296Z,11.90
2018-02-16T10:45:32.272Z,15.53
2018-02-16T10:47:58.400Z,14.00
2018-02-16T10:50:24.421Z,14.77
2018-02-16T10:52:50.380Z,15.93
2018-02-16T10:55:16.406Z,18.63
2018-02-16T10:57:42.422Z,15.07
2018-02-16T11:00:08.561Z,13.57
2018-02-16T11:02:40.630Z,13.83
2018-02-16T11:05:11.596Z,13.50
2018-02-16T11:07:43.828Z,10.87
2018-02-16T11:10:09.904Z,13.37
2018-02-16T11:12:35.897Z,12.30
2018-02-16T11:15:02.134Z,12.83
2018-02-16T11:17:28.232Z,11.03
2018-02-16T11:19:54.292Z,12.80
2018-02-16T11:22:20.402Z,11.63
2018-02-16T11:24:46.352Z,9.73
2018-02-16T11:27:12.437Z,10.37
2018-02-16T11:29:38.381Z,11.00
2018-02-16T11:32:04.400Z,11.33
2018-02-16T11:34:30.453Z,9.67
2018-02-16T11:36:56.681Z,11.43
2018-02-16T11:39:22.698Z,10.83
2018-02-16T11:41:48.650Z,8.50
2018-02-16T11:44:14.643Z,10.67
2018-02-16T11:46:40.708Z,11.90
2018-02-16T11:49:06.760Z,11.93
2018-02-16T11:51:32.836Z,9.70
2018-02-16T11:53:58.912Z,11.50
2018-02-16T11:56:24.923Z,12.30
2018-02-16T11:58:50.925Z,12.70
2018-02-16T12:01:17.266Z,9.90
2018-02-16T12:03:43.285Z,11.00
2018-02-16T12:06:09.261Z,9.83
2018-02-16T12:08:35.285Z,9.23
2018-02-16T12:11:01.334Z,10.30
2018-02-16T12:13:27.389Z,10.67
2018-02-16T12:15:53.408Z,11.10
2018-02-16T12:18:19.421Z,11.20
2018-02-16T12:20:45.440Z,11.50
2018-02-16T12:23:11.429Z,11.77
2018-02-16T12:25:37.408Z,11.00
2018-02-16T12:28:03.431Z,13.90
2018-02-16T12:30:29.400Z,11.23
2018-02-16T12:32:55.439Z,12.70
2018-02-16T12:35:21.457Z,12.80
2018-02-16T12:37:47.470Z,12.00
2018-02-16T12:40:13.434Z,11.70
2018-02-16T12:42:39.482Z,10.53
2018-02-16T12:45:05.505Z,11.13
2018-02-16T12:47:31.550Z,11.60
2018-02-16T12:49:57.580Z,11.90
2018-02-16T12:52:23.553Z,11.50
2018-02-16T12:54:49.576Z,13.00
2018-02-16T12:57:15.577Z,13.53
2018-02-16T12:59:41.604Z,13.50
2018-02-16T13:02:07.619Z,12.70
2018-02-16T13:04:33.644Z,14.67
2018-02-16T13:06:59.739Z,14.60
2018-02-16T13:09:25.738Z,14.33
2018-02-16T13:11:51.711Z,13.87
2018-02-16T13:14:17.690Z,12.77
2018-02-16T13:16:43.697Z,13.20
2018-02-16T13:19:09.739Z,11.70
2018-02-16T13:21:35.784Z,13.60
2018-02-16T13:24:01.812Z,11.80
2018-02-16T13:26:27.852Z,11.23
2018-02-16T13:28:53.872Z,13.73
2018-02-16T13:31:19.909Z,13.33
2018-02-16T13:33:45.910Z,18.37
2018-02-16T13:36:11.993Z,13.30
2018-02-16T13:38:38.003Z,11.87
2018-02-16T13:41:04.020Z,12.00
2018-02-16T13:43:30.072Z,12.00
2018-02-16T13:45:56.066Z,10.90
2018-02-16T13:48:22.139Z,13.17
2018-02-16T13:50:48.180Z,14.30
2018-02-16T13:53:14.172Z,13.33
2018-02-16T13:55:40.194Z,25.47
2018-02-16T13:58:06.209Z,15.70
2018-02-16T14:00:32.241Z,11.70
2018-02-16T14:02:58.429Z,13.60
2018-02-16T14:05:24.524Z,11.00
2018-02-16T14:07:50.552Z,12.13
2018-02-16T14:10:16.570Z,12.43
2018-02-16T14:12:42.624Z,12.00
2018-02-16T14:15:08.619Z,11.47
2018-02-16T14:17:34.620Z,12.77
2018-02-16T14:20:00.689Z,11.73
2018-02-16T14:22:26.670Z,14.67
2018-02-16T14:24:52.703Z,14.23
2018-02-16T14:27:18.688Z,13.60
2018-02-16T14:29:44.700Z,15.00
2018-02-16T14:32:10.709Z,15.90
2018-02-16T14:34:36.756Z,17.97
2018-02-16T14:37:02.756Z,17.40
2018-02-16T14:39:28.799Z,14.30
2018-02-16T14:41:54.844Z,16.27
2018-02-16T14:46:53.684Z,16.70
2018-02-16T14:49:19.733Z,14.10
2018-02-16T14:51:45.783Z,14.93
2018-02-16T14:54:11.786Z,78.83
2018-02-16T14:56:38.253Z,16.13
2018-02-16T14:59:04.273Z,17.30
2018-02-16T15:01:30.315Z,18.40
2018-02-16T15:03:56.338Z,16.70
2018-02-16T15:06:22.315Z,15.27
2018-02-16T15:08:48.361Z,15.47
2018-02-16T15:11:14.348Z,14.27
2018-02-16T15:13:40.544Z,17.13
2018-02-16T15:16:06.428Z,16.60
2018-02-16T15:18:32.464Z,16.73
2018-02-16T15:20:58.482Z,19.13
2018-02-16T15:23:24.533Z,16.90
2018-02-16T15:25:50.539Z,17.00
2018-02-16T15:28:16.636Z,17.40
2018-02-16T15:30:42.602Z,18.40
2018-02-16T15:33:08.559Z,17.00
2018-02-16T15:35:34.597Z,16.83
2018-02-16T15:38:00.613Z,16.67
2018-02-16T15:40:26.605Z,17.73
2018-02-16T15:42:52.661Z,16.20
2018-02-16T15:45:18.745Z,16.10
2018-02-16T15:47:44.754Z,22.80
2018-02-16T15:50:10.809Z,17.53
2018-02-16T15:52:36.938Z,15.30
2018-02-16T15:55:03.062Z,16.43
2018-02-16T15:57:29.128Z,17.40
2018-02-16T15:59:55.156Z,16.17
2018-02-16T16:02:21.204Z,16.00
2018-02-16T16:04:47.253Z,16.63
2018-02-16T16:07:13.236Z,17.73
2018-02-16T16:09:39.317Z,16.33
2018-02-16T16:12:05.322Z,16.07
2018-02-16T16:14:31.376Z,17.90
2018-02-16T16:16:57.415Z,16.50
2018-02-16T16:19:23.419Z,12.90
2018-02-16T16:21:49.456Z,15.00
2018-02-16T16:24:15.484Z,13.50
2018-02-16T16:26:41.673Z,16.40
2018-02-16T16:29:07.703Z,14.90
2018-02-16T16:31:33.716Z,15.50
2018-02-16T16:33:59.786Z,14.77
2018-02-16T16:36:25.808Z,13.30
2018-02-16T16:38:51.857Z,14.37
2018-02-16T16:41:17.860Z,14.70
2018-02-16T16:43:43.840Z,13.37
2018-02-16T16:46:09.846Z,13.17
2018-02-16T16:48:35.847Z,15.57
2018-02-16T16:51:01.987Z,12.30
2018-02-16T16:53:28.009Z,13.20
2018-02-16T16:55:54.025Z,13.10
2018-02-16T16:58:20.080Z,15.70
2018-02-16T17:00:46.144Z,14.80
2018-02-16T17:03:19.256Z,18.70
2018-02-16T17:05:45.283Z,18.57
2018-02-16T17:08:11.313Z,15.13
2018-02-16T17:10:37.316Z,16.63
2018-02-16T17:13:03.510Z,16.30
2018-02-16T17:15:29.491Z,15.70
2018-02-16T17:17:55.525Z,13.53
2018-02-16T17:20:21.566Z,14.03
2018-02-16T17:22:47.493Z,15.67
2018-02-16T17:25:13.502Z,19.97
2018-02-16T17:27:39.514Z,17.53
2018-02-16T17:30:05.525Z,17.40
2018-02-16T17:32:31.561Z,18.17
2018-02-16T17:34:57.553Z,18.77
2018-02-16T17:37:23.584Z,17.40
2018-02-16T17:39:49.606Z,18.43
2018-02-16T17:42:15.660Z,24.20
2018-02-16T17:44:41.705Z,24.23
2018-02-16T17:47:07.714Z,23.67
2018-02-16T17:49:33.762Z,23.97
2018-02-16T17:51:59.713Z,23.73
2018-02-16T17:54:25.756Z,30.70
2018-02-16T17:56:51.770Z,26.50
2018-02-16T17:59:17.808Z,27.13
2018-02-16T18:01:43.848Z,27.03
2018-02-16T18:04:09.861Z,25.17
2018-02-16T18:06:35.884Z,23.10
2018-02-16T18:09:01.987Z,20.97
2018-02-16T18:11:28.060Z,22.50
2018-02-16T18:13:54.071Z,21.97
2018-02-16T18:16:20.389Z,22.20
2018-02-16T18:18:46.385Z,21.30
2018-02-16T18:21:12.400Z,19.47
2018-02-16T18:23:38.448Z,23.60
2018-02-16T18:26:04.534Z,21.13
2018-02-16T18:28:30.597Z,21.60
2018-02-16T18:30:56.649Z,22.70
2018-02-16T18:33:22.788Z,23.50
2018-02-16T18:35:48.841Z,24.10
2018-02-16T18:38:14.858Z,23.43
2018-02-16T18:40:40.857Z,24.70
2018-02-16T18:43:06.881Z,22.40
2018-02-16T18:45:32.937Z,21.80
2018-02-16T18:47:58.926Z,21.93
2018-02-16T18:50:24.956Z,20.80
2018-02-16T18:52:51.001Z,19.03
2018-02-16T18:55:17.049Z,19.37
2018-02-16T18:57:43.099Z,18.63
2018-02-16T19:00:09.117Z,22.83
2018-02-16T19:02:35.154Z,21.60
2018-02-16T19:05:01.210Z,21.03
2018-02-16T19:07:27.223Z,16.93
2018-02-16T19:09:53.231Z,19.10
2018-02-16T19:12:19.225Z,18.90
2018-02-16T19:14:45.208Z,18.87
2018-02-16T19:17:11.200Z,19.50
2018-02-16T19:19:37.436Z,20.17
2018-02-16T19:22:03.417Z,18.50
2018-02-16T19:24:29.488Z,18.70
2018-02-16T19:26:55.514Z,20.23
2018-02-16T19:29:21.532Z,19.00
2018-02-16T19:31:47.641Z,20.63
2018-02-16T19:34:13.669Z,19.50
2018-02-16T19:36:39.638Z,19.77
2018-02-16T19:39:05.637Z,25.00
2018-02-16T19:41:31.664Z,23.67
2018-02-16T19:43:57.701Z,22.70
2018-02-16T19:46:23.718Z,25.87
2018-02-16T19:48:50.127Z,24.30
2018-02-16T19:51:16.270Z,23.80
2018-02-16T19:53:42.398Z,25.50
2018-02-16T19:56:08.596Z,27.40
2018-02-16T19:58:34.663Z,25.20
2018-02-16T20:01:00.741Z,25.13
2018-02-16T20:03:26.739Z,22.50
2018-02-16T20:05:52.746Z,23.60
2018-02-16T20:08:18.876Z,26.60
2018-02-16T20:10:44.881Z,23.40
2018-02-16T20:13:11.090Z,23.03
2018-02-16T20:15:37.124Z,23.70
2018-02-16T20:18:03.223Z,22.40
2018-02-16T20:20:29.272Z,22.87
2018-02-16T20:22:55.348Z,23.30
2018-02-16T20:25:21.419Z,25.17
2018-02-16T20:27:47.458Z,24.70
2018-02-16T20:30:13.582Z,24.90
2018-02-16T20:32:39.587Z,22.33
2018-02-16T20:35:05.641Z,24.43
2018-02-16T20:37:31.968Z,26.03
2018-02-16T20:40:00.278Z,23.37
2018-02-16T20:42:26.408Z,23.83
2018-02-16T20:44:53.319Z,25.17
2018-02-16T20:47:19.392Z,24.50
2018-02-16T20:49:45.492Z,24.77
2018-02-16T20:52:11.555Z,24.30
2018-02-16T20:54:37.660Z,24.43
2018-02-16T20:57:03.828Z,25.13
2018-02-16T20:59:29.824Z,23.03
2018-02-16T21:01:55.892Z,24.37
2018-02-16T21:04:21.918Z,22.70
2018-02-16T21:06:48.003Z,26.93
2018-02-16T21:09:14.114Z,27.13
2018-02-16T21:11:40.204Z,27.27
2018-02-16T21:14:06.291Z,27.13
2018-02-16T21:16:32.347Z,25.83
2018-02-16T21:18:58.425Z,26.13
2018-02-16T21:21:24.432Z,26.37
2018-02-16T21:23:50.511Z,26.27
2018-02-16T21:26:16.772Z,27.90
2018-02-16T21:28:43.189Z,26.13
2018-02-16T21:31:09.310Z,28.27
2018-02-16T21:33:35.347Z,29.07
2018-02-16T21:36:01.657Z,27.47
2018-02-16T21:38:27.751Z,29.70
2018-02-16T21:40:53.803Z,30.10
2018-02-16T21:43:19.830Z,32.77
2018-02-16T21:45:45.910Z,34.83
2018-02-16T21:48:12.175Z,36.00
2018-02-16T21:50:38.202Z,32.17
2018-02-16T21:53:04.266Z,28.63
2018-02-16T21:55:30.312Z,29.50
2018-02-16T21:57:56.353Z,31.57
2018-02-16T22:00:22.475Z,28.73
2018-02-16T22:02:48.613Z,29.70
2018-02-16T22:05:14.637Z,29.57
2018-02-16T22:07:40.753Z,29.20
2018-02-16T22:10:07.088Z,35.13
2018-02-16T22:12:33.181Z,31.10
2018-02-16T22:14:59.313Z,32.97
2018-02-16T22:17:25.342Z,35.77
2018-02-16T22:19:51.377Z,34.27
2018-02-16T22:22:17.500Z,29.57
2018-02-16T22:24:43.557Z,32.30
2018-02-16T22:27:09.917Z,30.97
2018-02-16T22:29:35.937Z,30.70
2018-02-16T22:32:01.997Z,33.60
2018-02-16T22:34:28.122Z,26.63
2018-02-16T22:36:54.198Z,32.13
2018-02-16T22:42:12.986Z,28.43
2018-02-16T22:44:38.968Z,29.03
2018-02-16T22:47:05.026Z,30.10
2018-02-16T22:49:31.065Z,32.20
2018-02-16T22:51:57.142Z,30.77
2018-02-16T22:54:23.311Z,30.53
2018-02-16T22:56:49.458Z,25.47
2018-02-16T22:59:15.510Z,27.40
2018-02-16T23:01:41.529Z,25.60
2018-02-16T23:04:07.562Z,28.10
2018-02-16T23:06:33.584Z,33.07
2018-02-16T23:08:59.608Z,29.90
2018-02-16T23:11:25.625Z,32.93
2018-02-16T23:13:51.616Z,24.60
2018-02-16T23:16:17.904Z,24.83
2018-02-16T23:18:43.934Z,21.70
2018-02-16T23:21:10.124Z,21.37
2018-02-16T23:23:36.181Z,19.40
2018-02-16T23:26:02.226Z,19.20
2018-02-16T23:28:28.249Z,18.73
2018-02-16T23:30:54.483Z,17.10
2018-02-16T23:33:20.498Z,19.10
2018-02-16T23:35:46.855Z,20.57
2018-02-16T23:38:12.890Z,20.60
2018-02-16T23:40:38.917Z,18.33
2018-02-16T23:43:05.102Z,22.63
2018-02-16T23:45:31.601Z,25.23
2018-02-16T23:47:57.717Z,29.43
2018-02-16T23:50:23.824Z,31.07
2018-02-16T23:52:49.874Z,30.40
2018-02-16T23:55:15.905Z,27.47
2018-02-16T23:57:41.980Z,30.13
